Time;durP1;ratioP1;P1;durP2;ratioP2;P2;SDS_P1;SDS_P2;PMS_P1;PMS_P2;Temp;Humidity;BMP_temperature;BMP_pressure;BME280_temperature;BME280_humidity;BME280_pressure;Samples;Min_cycle;Max_cycle;Signal;HPM_P1;HPM_P2
2023/07/28 00:02:05;;;;;;;0.70;0.60;;;23.20;46.50;;;;;;5055877;28;20213;-75
2023/07/28 00:04:33;;;;;;;0.73;0.63;;;23.20;46.40;;;;;;5053706;28;20561;-75
2023/07/28 00:06:59;;;;;;;0.80;0.80;;;23.20;46.50;;;;;;5056653;28;20223;-76
2023/07/28 00:09:24;;;;;;;0.80;0.70;;;23.20;46.50;;;;;;5052616;28;20439;-75
2023/07/28 00:11:50;;;;;;;0.70;0.70;;;23.20;46.40;;;;;;5052550;28;20691;-76
2023/07/28 00:14:15;;;;;;;0.70;0.70;;;23.20;46.40;;;;;;5054529;28;20226;-76
2023/07/28 00:16:41;;;;;;;0.70;0.70;;;23.20;46.40;;;;;;5058692;28;20232;-76
2023/07/28 00:19:06;;;;;;;0.73;0.70;;;23.20;46.50;;;;;;5053196;28;20349;-75
2023/07/28 00:21:32;;;;;;;0.67;0.67;;;23.20;46.40;;;;;;5058352;28;20643;-75
2023/07/28 00:23:57;;;;;;;1.33;0.70;;;23.20;46.40;;;;;;5072115;28;20213;-75
2023/07/28 00:26:23;;;;;;;0.70;0.70;;;23.20;46.30;;;;;;5059388;28;20213;-76
2023/07/28 00:28:49;;;;;;;0.73;0.70;;;23.20;46.30;;;;;;5051938;28;20217;-76
2023/07/28 00:31:14;;;;;;;0.70;0.67;;;23.20;46.50;;;;;;5055052;28;20244;-76
2023/07/28 00:33:40;;;;;;;0.70;0.70;;;23.20;46.30;;;;;;5051153;28;20230;-76
2023/07/28 00:36:05;;;;;;;0.60;0.60;;;23.20;46.40;;;;;;5056749;28;20667;-74
2023/07/28 00:38:31;;;;;;;0.80;0.70;;;23.20;46.40;;;;;;5053142;28;20669;-76
2023/07/28 00:40:57;;;;;;;0.70;0.70;;;23.20;46.30;;;;;;5055029;28;20716;-75
2023/07/28 00:43:22;;;;;;;0.80;0.77;;;23.20;46.40;;;;;;5056106;28;20221;-74
2023/07/28 00:45:48;;;;;;;2.13;0.70;;;23.20;46.40;;;;;;5058061;28;20458;-75
2023/07/28 00:48:15;;;;;;;0.70;0.60;;;23.20;46.40;;;;;;5052809;28;20218;-76
2023/07/28 00:50:43;;;;;;;0.80;0.70;;;23.20;46.40;;;;;;5054713;28;20311;-76
2023/07/28 00:53:09;;;;;;;0.70;0.70;;;23.20;46.40;;;;;;5055402;28;20937;-75
2023/07/28 00:55:35;;;;;;;0.60;0.60;;;23.20;46.50;;;;;;5055407;28;20448;-75
2023/07/28 00:58:00;;;;;;;0.70;0.60;;;23.20;46.50;;;;;;5054760;28;20700;-76
2023/07/28 01:00:26;;;;;;;0.80;0.70;;;23.20;46.50;;;;;;5054937;28;20228;-74
2023/07/28 01:02:51;;;;;;;0.93;0.90;;;23.20;46.50;;;;;;5054669;28;20214;-76
2023/07/28 01:05:17;;;;;;;0.70;0.70;;;23.20;46.50;;;;;;5058982;28;20235;-76
2023/07/28 01:08:10;;;;;;;0.80;0.70;;;23.20;46.50;;;;;;5059588;28;20267;-76
2023/07/28 01:10:35;;;;;;;0.77;0.70;;;23.20;46.40;;;;;;5063091;28;20782;-75
2023/07/28 01:13:01;;;;;;;3.33;0.80;;;23.20;46.40;;;;;;5059719;28;20447;-76
2023/07/28 01:15:26;;;;;;;4.87;0.90;;;23.20;46.50;;;;;;5059882;28;20225;-76
2023/07/28 01:17:52;;;;;;;8.60;0.90;;;23.20;46.50;;;;;;5062280;28;20693;-76
2023/07/28 01:20:18;;;;;;;0.70;0.67;;;23.20;46.50;;;;;;5058470;28;20217;-76
2023/07/28 01:22:57;;;;;;;0.83;0.80;;;23.20;46.50;;;;;;5060898;28;20221;-74
2023/07/28 01:25:42;;;;;;;1.10;0.77;;;23.20;46.50;;;;;;5060478;28;20249;-75
2023/07/28 01:28:09;;;;;;;0.70;0.67;;;23.20;46.40;;;;;;5060657;28;20442;-75
2023/07/28 01:30:35;;;;;;;0.70;0.60;;;23.20;46.50;;;;;;5059269;28;20477;-75
2023/07/28 01:33:06;;;;;;;0.70;0.60;;;23.20;46.50;;;;;;5064992;22;20539;-61
2023/07/28 01:35:31;;;;;;;0.60;0.60;;;23.20;46.50;;;;;;5038355;28;21069;-61
2023/07/28 01:37:57;;;;;;;0.80;0.80;;;23.20;46.50;;;;;;5038151;28;20614;-62
2023/07/28 01:40:23;;;;;;;0.80;0.80;;;23.20;46.50;;;;;;5039268;28;20229;-62
2023/07/28 01:42:48;;;;;;;0.70;0.70;;;23.20;46.50;;;;;;5033733;28;20226;-61
2023/07/28 01:45:14;;;;;;;0.80;0.70;;;23.20;46.50;;;;;;5030281;28;20316;-61
2023/07/28 01:47:39;;;;;;;0.77;0.77;;;23.20;46.50;;;;;;5035770;28;20280;-62
2023/07/28 01:50:05;;;;;;;0.70;0.70;;;23.20;46.60;;;;;;5036642;28;20229;-63
2023/07/28 01:52:31;;;;;;;0.77;0.70;;;23.20;46.50;;;;;;5017656;28;20674;-62
2023/07/28 01:54:56;;;;;;;0.60;0.53;;;23.20;46.50;;;;;;5025235;28;20244;-61
2023/07/28 01:57:24;;;;;;;0.83;0.83;;;23.20;46.50;;;;;;5036929;28;20661;-62
2023/07/28 01:59:49;;;;;;;0.80;0.70;;;23.20;46.50;;;;;;5038516;28;20214;-62
2023/07/28 02:02:15;;;;;;;0.70;0.70;;;23.20;46.50;;;;;;5039151;28;20460;-61
2023/07/28 02:04:40;;;;;;;0.70;0.70;;;23.20;46.50;;;;;;5038166;28;20218;-63
2023/07/28 02:07:06;;;;;;;0.80;0.80;;;23.20;46.60;;;;;;5034070;28;20317;-61
2023/07/28 02:09:31;;;;;;;0.80;0.70;;;23.20;46.70;;;;;;5036245;28;20218;-61
2023/07/28 02:11:57;;;;;;;0.70;0.60;;;23.20;46.60;;;;;;5037443;28;21122;-61
2023/07/28 02:14:22;;;;;;;0.70;0.70;;;23.20;46.50;;;;;;5036221;28;20685;-62
2023/07/28 02:16:48;;;;;;;0.63;0.63;;;23.20;46.50;;;;;;5036519;28;20223;-62
2023/07/28 02:19:13;;;;;;;0.70;0.70;;;23.20;46.60;;;;;;5037228;28;20305;-62
2023/07/28 02:21:39;;;;;;;1.43;0.70;;;23.20;46.60;;;;;;5040867;28;20233;-62
2023/07/28 02:24:05;;;;;;;0.60;0.53;;;23.20;46.60;;;;;;5038070;28;20280;-63
2023/07/28 02:26:31;;;;;;;0.70;0.70;;;23.20;46.50;;;;;;5038588;28;20230;-61
2023/07/28 02:28:56;;;;;;;0.70;0.70;;;23.20;46.60;;;;;;5035706;28;20834;-62
2023/07/28 02:31:22;;;;;;;1.37;0.80;;;23.20;46.60;;;;;;5038549;28;20259;-61
2023/07/28 02:33:47;;;;;;;0.70;0.60;;;23.20;46.60;;;;;;5035424;28;20238;-62
2023/07/28 02:36:13;;;;;;;0.70;0.70;;;23.20;46.60;;;;;;5037543;28;20585;-61
2023/07/28 02:38:38;;;;;;;0.80;0.80;;;23.20;46.60;;;;;;5038901;28;20221;-62
2023/07/28 02:41:04;;;;;;;0.70;0.70;;;23.20;46.60;;;;;;5038033;28;20230;-63
2023/07/28 02:43:30;;;;;;;0.73;0.73;;;23.20;46.60;;;;;;5035394;28;20301;-61
2023/07/28 02:45:57;;;;;;;0.70;0.60;;;23.20;46.60;;;;;;5039161;28;20265;-62
2023/07/28 02:48:23;;;;;;;0.80;0.80;;;23.20;46.60;;;;;;5034498;28;20214;-61
2023/07/28 02:50:52;;;;;;;0.70;0.70;;;23.20;46.70;;;;;;5037324;28;20486;-61
2023/07/28 02:53:17;;;;;;;0.63;0.63;;;23.20;46.60;;;;;;5035922;28;20225;-61
2023/07/28 02:55:44;;;;;;;0.80;0.70;;;23.20;46.60;;;;;;5034387;28;20463;-61
2023/07/28 02:58:13;;;;;;;0.70;0.70;;;23.20;46.60;;;;;;5037605;28;20310;-61
2023/07/28 03:00:40;;;;;;;0.70;0.70;;;23.20;46.70;;;;;;5036370;28;20483;-62
2023/07/28 03:03:11;;;;;;;0.70;0.67;;;23.20;46.60;;;;;;5035328;28;20475;-61
2023/07/28 03:05:38;;;;;;;0.60;0.60;;;23.20;46.60;;;;;;5028915;28;20486;-61
2023/07/28 03:08:04;;;;;;;0.80;0.80;;;23.20;46.60;;;;;;5037553;28;20456;-62
2023/07/28 03:10:30;;;;;;;0.80;0.80;;;23.20;46.70;;;;;;5038483;28;20571;-62
2023/07/28 03:12:55;;;;;;;0.70;0.67;;;23.20;46.70;;;;;;5039306;28;20982;-61
2023/07/28 03:15:21;;;;;;;0.70;0.70;;;23.20;46.70;;;;;;5035514;28;20223;-61
2023/07/28 03:17:48;;;;;;;0.60;0.60;;;23.20;46.70;;;;;;5037597;28;20635;-61
2023/07/28 03:20:13;;;;;;;0.80;0.80;;;23.20;46.70;;;;;;5037185;28;20463;-62
2023/07/28 03:22:39;;;;;;;0.73;0.73;;;23.20;46.70;;;;;;5037100;28;20531;-61
2023/07/28 03:25:04;;;;;;;0.70;0.67;;;23.20;46.70;;;;;;5033027;28;20256;-63
2023/07/28 03:27:30;;;;;;;0.73;0.73;;;23.20;46.60;;;;;;5037273;28;21000;-62
2023/07/28 03:29:55;;;;;;;0.70;0.60;;;23.20;46.70;;;;;;5036775;28;20233;-61
2023/07/28 03:32:21;;;;;;;0.70;0.70;;;23.20;46.70;;;;;;5041266;28;20227;-61
2023/07/28 03:34:46;;;;;;;0.70;0.60;;;23.20;46.70;;;;;;5034310;28;20249;-63
2023/07/28 03:37:12;;;;;;;0.70;0.70;;;23.20;46.70;;;;;;5037133;28;20226;-63
2023/07/28 03:39:37;;;;;;;0.70;0.70;;;23.20;46.70;;;;;;5035877;28;21082;-61
2023/07/28 03:42:03;;;;;;;0.70;0.70;;;23.20;46.70;;;;;;5035042;28;20746;-61
2023/07/28 03:44:29;;;;;;;0.70;0.70;;;23.20;46.70;;;;;;5032190;28;20222;-61
2023/07/28 03:46:54;;;;;;;0.70;0.70;;;23.10;46.70;;;;;;5034601;28;20308;-61
2023/07/28 03:49:20;;;;;;;0.77;0.70;;;23.20;46.70;;;;;;5033581;28;20228;-61
2023/07/28 03:51:46;;;;;;;0.60;0.60;;;23.20;46.80;;;;;;5036797;28;20612;-62
2023/07/28 03:54:11;;;;;;;0.70;0.70;;;23.20;46.70;;;;;;5032728;28;20677;-62
2023/07/28 03:56:37;;;;;;;0.80;0.80;;;23.20;46.70;;;;;;5036532;28;20686;-62
2023/07/28 03:59:02;;;;;;;0.70;0.70;;;23.10;46.50;;;;;;5036184;28;20805;-61
2023/07/28 04:01:28;;;;;;;0.70;0.70;;;23.20;46.70;;;;;;5029950;28;20226;-61
2023/07/28 04:03:53;;;;;;;0.80;0.70;;;23.20;46.70;;;;;;5018011;28;20702;-61
2023/07/28 04:06:19;;;;;;;0.70;0.60;;;23.20;46.70;;;;;;5029068;28;20230;-61
2023/07/28 04:08:45;;;;;;;0.60;0.60;;;23.20;46.70;;;;;;5035156;28;20317;-61
2023/07/28 04:11:10;;;;;;;0.70;0.60;;;23.20;46.70;;;;;;5035137;28;20283;-62
2023/07/28 04:13:36;;;;;;;0.70;0.70;;;23.20;46.70;;;;;;5036327;28;20307;-63
2023/07/28 04:16:01;;;;;;;0.70;0.70;;;23.20;46.70;;;;;;5036431;28;20218;-61
2023/07/28 04:18:27;;;;;;;0.70;0.60;;;23.10;46.60;;;;;;5035436;28;20574;-61
2023/07/28 04:20:53;;;;;;;0.80;0.70;;;23.10;46.60;;;;;;5035047;28;20287;-62
2023/07/28 04:23:18;;;;;;;0.70;0.70;;;23.20;46.60;;;;;;5035299;28;20218;-62
2023/07/28 04:25:44;;;;;;;0.73;0.73;;;23.10;46.60;;;;;;5036011;28;20230;-61
2023/07/28 04:28:09;;;;;;;0.60;0.60;;;23.20;46.70;;;;;;5038543;28;20214;-62
2023/07/28 04:30:35;;;;;;;0.63;0.63;;;23.10;46.60;;;;;;5035038;28;20234;-62
2023/07/28 04:33:01;;;;;;;0.90;0.80;;;23.10;46.60;;;;;;5032550;28;20570;-61
2023/07/28 04:35:26;;;;;;;0.90;0.90;;;23.10;46.60;;;;;;5022327;28;20240;-61
2023/07/28 04:37:52;;;;;;;0.70;0.70;;;23.10;46.60;;;;;;5021334;28;20670;-61
2023/07/28 04:40:19;;;;;;;0.70;0.70;;;23.10;46.60;;;;;;5028412;28;20628;-61
2023/07/28 04:42:46;;;;;;;0.70;0.60;;;23.20;46.70;;;;;;5033893;28;20219;-61
2023/07/28 04:45:11;;;;;;;0.80;0.70;;;23.20;46.70;;;;;;5034779;28;20457;-62
2023/07/28 04:47:37;;;;;;;0.70;0.70;;;23.20;46.70;;;;;;5037865;28;20450;-60
2023/07/28 04:50:02;;;;;;;0.70;0.70;;;23.20;46.60;;;;;;5033759;28;20645;-63
2023/07/28 04:52:28;;;;;;;0.70;0.70;;;23.20;46.60;;;;;;5035023;28;20222;-61
2023/07/28 04:54:53;;;;;;;0.80;0.70;;;23.20;46.70;;;;;;5040966;28;20206;-61
2023/07/28 04:57:19;;;;;;;0.70;0.63;;;23.20;46.60;;;;;;5039455;28;20222;-61
2023/07/28 04:59:45;;;;;;;0.70;0.70;;;23.20;46.60;;;;;;5037805;28;20581;-63
2023/07/28 05:02:10;;;;;;;0.70;0.70;;;23.20;46.60;;;;;;5038338;28;20264;-61
2023/07/28 05:04:36;;;;;;;0.70;0.70;;;23.20;46.60;;;;;;5037034;28;20325;-62
2023/07/28 05:07:02;;;;;;;1.00;0.80;;;23.20;46.60;;;;;;5038790;28;20229;-61
2023/07/28 05:09:28;;;;;;;0.70;0.70;;;23.20;46.60;;;;;;5026075;28;20464;-61
2023/07/28 05:11:54;;;;;;;0.80;0.70;;;23.20;46.50;;;;;;5024821;28;20961;-61
2023/07/28 05:14:20;;;;;;;0.70;0.70;;;23.20;46.50;;;;;;5020356;28;20504;-62
2023/07/28 05:16:46;;;;;;;0.60;0.60;;;23.20;46.50;;;;;;5027236;28;20695;-60
2023/07/28 05:19:13;;;;;;;0.70;0.60;;;23.20;46.50;;;;;;5025563;28;20704;-61
2023/07/28 05:21:38;;;;;;;0.90;0.87;;;23.20;46.50;;;;;;5040083;28;20460;-61
2023/07/28 05:24:04;;;;;;;0.70;0.70;;;23.20;46.60;;;;;;5036562;28;20436;-63
2023/07/28 05:26:30;;;;;;;0.70;0.70;;;23.30;46.60;;;;;;5040706;28;20259;-62
2023/07/28 05:28:55;;;;;;;0.60;0.60;;;23.20;46.60;;;;;;5036180;28;20455;-61
2023/07/28 05:31:21;;;;;;;0.70;0.70;;;23.20;46.50;;;;;;5038448;28;20578;-61
2023/07/28 05:33:46;;;;;;;0.70;0.60;;;23.30;46.60;;;;;;5035707;28;20284;-61
2023/07/28 05:36:12;;;;;;;0.70;0.67;;;23.20;46.60;;;;;;5038111;28;20221;-61
2023/07/28 05:38:37;;;;;;;1.10;0.60;;;23.30;46.60;;;;;;5039015;28;20222;-61
2023/07/28 05:41:04;;;;;;;0.60;0.53;;;23.30;46.60;;;;;;5039386;28;20224;-61
2023/07/28 05:43:31;;;;;;;0.63;0.63;;;23.30;46.60;;;;;;5044833;28;20575;-61
2023/07/28 05:45:57;;;;;;;0.73;0.70;;;23.20;46.60;;;;;;5032716;28;20471;-62
2023/07/28 05:48:23;;;;;;;0.70;0.70;;;23.30;46.60;;;;;;5038727;28;20443;-62
2023/07/28 05:50:51;;;;;;;0.70;0.70;;;23.30;46.60;;;;;;5035796;28;20525;-61
2023/07/28 05:53:16;;;;;;;0.70;0.70;;;23.30;46.60;;;;;;5033606;28;20268;-61
2023/07/28 05:55:42;;;;;;;0.60;0.60;;;23.30;46.60;;;;;;5039771;28;20436;-61
2023/07/28 05:58:07;;;;;;;0.70;0.70;;;23.30;46.60;;;;;;5039915;28;21120;-61
2023/07/28 06:00:33;;;;;;;0.70;0.70;;;23.30;46.60;;;;;;5038956;28;20681;-61
2023/07/28 06:02:59;;;;;;;1.00;0.80;;;23.30;46.60;;;;;;5040164;28;20305;-61
2023/07/28 06:05:24;;;;;;;0.60;0.60;;;23.30;46.60;;;;;;5025967;28;20238;-61
2023/07/28 06:07:50;;;;;;;0.70;0.70;;;23.30;46.50;;;;;;5032900;28;20226;-62
2023/07/28 06:10:15;;;;;;;0.63;0.63;;;23.30;46.50;;;;;;5037285;28;20713;-60
2023/07/28 06:12:41;;;;;;;0.67;0.67;;;23.30;46.60;;;;;;5029830;28;20230;-61
2023/07/28 06:15:07;;;;;;;0.70;0.70;;;23.30;46.60;;;;;;5035772;28;20233;-61
2023/07/28 06:17:32;;;;;;;0.63;0.60;;;23.30;46.60;;;;;;5035569;28;20783;-61
2023/07/28 06:19:58;;;;;;;0.70;0.70;;;23.30;46.60;;;;;;5037523;28;20455;-61
2023/07/28 06:22:24;;;;;;;0.90;0.80;;;23.30;46.60;;;;;;5039816;28;20227;-61
2023/07/28 06:24:50;;;;;;;0.70;0.60;;;23.30;46.60;;;;;;5022176;28;20222;-61
2023/07/28 06:27:15;;;;;;;0.70;0.70;;;23.30;46.60;;;;;;5034830;28;20701;-61
2023/07/28 06:29:41;;;;;;;0.60;0.50;;;23.30;46.60;;;;;;5037313;28;20241;-61
2023/07/28 06:32:07;;;;;;;0.90;0.80;;;23.30;46.60;;;;;;5037777;28;20238;-61
2023/07/28 06:34:32;;;;;;;0.70;0.60;;;23.30;46.60;;;;;;5036376;28;20571;-61
2023/07/28 06:36:58;;;;;;;0.60;0.50;;;23.30;46.60;;;;;;5037222;28;20226;-61
2023/07/28 06:39:24;;;;;;;0.60;0.60;;;23.30;46.60;;;;;;5028287;28;20229;-61
2023/07/28 06:41:50;;;;;;;0.73;0.73;;;23.30;46.60;;;;;;5038425;28;20628;-60
2023/07/28 06:44:16;;;;;;;0.70;0.60;;;23.30;46.60;;;;;;5033704;28;20427;-61
2023/07/28 06:46:42;;;;;;;0.67;0.60;;;23.30;46.60;;;;;;5036367;28;20959;-62
2023/07/28 06:49:07;;;;;;;0.60;0.60;;;23.30;46.60;;;;;;5038078;28;20218;-63
2023/07/28 06:51:33;;;;;;;0.60;0.60;;;23.30;46.60;;;;;;5026343;28;20234;-61
2023/07/28 06:53:59;;;;;;;0.70;0.70;;;23.30;46.60;;;;;;5035649;28;20222;-61
2023/07/28 06:56:24;;;;;;;0.70;0.60;;;23.30;46.60;;;;;;5026318;28;20219;-61
2023/07/28 06:58:50;;;;;;;0.70;0.70;;;23.30;46.80;;;;;;5035059;28;20263;-61
2023/07/28 07:01:17;;;;;;;0.60;0.60;;;23.30;46.60;;;;;;5037027;28;20236;-61
2023/07/28 07:03:43;;;;;;;0.70;0.60;;;23.30;46.60;;;;;;5035444;28;20581;-61
2023/07/28 07:06:08;;;;;;;0.70;0.60;;;23.30;46.60;;;;;;5034206;28;21077;-61
2023/07/28 07:08:34;;;;;;;0.70;0.70;;;23.30;46.60;;;;;;5028055;28;20252;-61
2023/07/28 07:11:00;;;;;;;1.37;0.60;;;23.30;46.70;;;;;;5037331;28;20237;-61
2023/07/28 07:13:26;;;;;;;0.70;0.70;;;23.30;46.60;;;;;;5034222;28;20223;-63
2023/07/28 07:15:51;;;;;;;0.70;0.60;;;23.30;46.60;;;;;;5038605;28;20536;-61
2023/07/28 07:18:17;;;;;;;0.63;0.63;;;23.30;47.10;;;;;;5037012;28;20223;-61
2023/07/28 07:20:42;;;;;;;0.60;0.57;;;23.30;46.60;;;;;;5032254;28;20578;-61
2023/07/28 07:23:08;;;;;;;0.60;0.60;;;23.30;46.60;;;;;;5033680;28;20280;-63
2023/07/28 07:25:33;;;;;;;0.70;0.60;;;23.30;46.60;;;;;;5034800;28;20222;-60
2023/07/28 07:27:59;;;;;;;0.70;0.70;;;23.30;46.60;;;;;;5035247;28;20214;-61
2023/07/28 07:30:25;;;;;;;0.60;0.60;;;23.30;46.60;;;;;;5036069;28;20467;-61
2023/07/28 07:32:50;;;;;;;0.70;0.70;;;23.30;46.60;;;;;;5032642;28;20251;-61
2023/07/28 07:35:16;;;;;;;0.67;0.60;;;23.30;46.60;;;;;;5035454;28;20225;-61
2023/07/28 07:37:41;;;;;;;0.60;0.60;;;23.30;46.60;;;;;;5036151;28;20761;-62
2023/07/28 07:40:07;;;;;;;0.60;0.60;;;23.30;46.60;;;;;;5036597;28;20244;-61
2023/07/28 07:42:49;;;;;;;0.70;0.60;;;23.30;46.60;;;;;;5034052;28;20328;-63
2023/07/28 07:45:15;;;;;;;0.60;0.60;;;23.30;46.60;;;;;;5028310;28;20959;-61
2023/07/28 07:47:41;;;;;;;0.60;0.60;;;23.30;46.60;;;;;;5027151;28;20516;-61
2023/07/28 07:50:10;;;;;;;0.70;0.60;;;23.30;46.60;;;;;;5034889;28;20672;-63
2023/07/28 07:52:37;;;;;;;0.70;0.63;;;23.30;46.70;;;;;;5035340;28;20450;-61
2023/07/28 07:55:04;;;;;;;0.67;0.60;;;23.30;46.60;;;;;;5030531;28;20475;-62
2023/07/28 07:57:29;;;;;;;0.60;0.60;;;23.30;46.60;;;;;;5031391;28;20876;-61
2023/07/28 07:59:57;;;;;;;0.77;0.70;;;23.30;46.60;;;;;;5023553;28;20467;-61
2023/07/28 08:02:23;;;;;;;0.70;0.70;;;23.30;46.60;;;;;;5032761;28;20238;-61
2023/07/28 08:04:49;;;;;;;0.60;0.60;;;23.30;46.60;;;;;;5023373;28;20487;-61
2023/07/28 08:07:16;;;;;;;0.60;0.60;;;23.30;46.60;;;;;;5024020;28;20288;-61
2023/07/28 08:09:41;;;;;;;0.60;0.60;;;23.30;46.70;;;;;;5026743;28;20456;-61
2023/07/28 08:12:08;;;;;;;0.80;0.80;;;23.30;46.60;;;;;;5036430;28;20978;-62
2023/07/28 08:14:34;;;;;;;0.60;0.60;;;23.30;46.60;;;;;;5033951;28;20313;-62
2023/07/28 08:16:59;;;;;;;0.70;0.70;;;23.30;46.60;;;;;;5034314;28;20467;-61
2023/07/28 08:19:25;;;;;;;0.67;0.60;;;23.30;46.60;;;;;;5036085;28;20450;-61
2023/07/28 08:21:51;;;;;;;0.70;0.70;;;23.30;46.60;;;;;;5041509;28;20226;-62
2023/07/28 08:24:16;;;;;;;0.60;0.60;;;23.30;46.60;;;;;;5038434;28;20293;-61
2023/07/28 08:26:42;;;;;;;0.70;0.70;;;23.30;46.60;;;;;;5039386;28;20222;-62
2023/07/28 08:29:07;;;;;;;0.60;0.50;;;23.30;46.70;;;;;;5037493;28;20225;-62
2023/07/28 08:31:33;;;;;;;0.60;0.60;;;23.30;47.40;;;;;;5039945;28;20234;-61
2023/07/28 08:33:58;;;;;;;0.70;0.70;;;23.30;46.70;;;;;;5039404;28;20299;-61
2023/07/28 08:36:24;;;;;;;0.60;0.60;;;23.30;46.60;;;;;;5040681;28;20262;-62
2023/07/28 08:38:49;;;;;;;0.60;0.60;;;23.20;47.30;;;;;;5034014;28;20234;-61
2023/07/28 08:41:15;;;;;;;0.60;0.60;;;23.20;46.60;;;;;;5025554;28;20879;-61
2023/07/28 08:43:41;;;;;;;1.33;0.60;;;23.30;46.70;;;;;;5040865;28;20283;-62
2023/07/28 08:46:07;;;;;;;0.70;0.60;;;23.20;46.70;;;;;;5024803;28;20752;-61
2023/07/28 08:48:33;;;;;;;0.70;0.70;;;23.30;46.70;;;;;;5021493;28;20497;-62
2023/07/28 08:50:59;;;;;;;0.60;0.60;;;23.20;46.60;;;;;;5036722;28;20467;-63
2023/07/28 08:53:25;;;;;;;0.73;0.60;;;23.20;46.60;;;;;;5036638;28;20275;-61
2023/07/28 08:55:51;;;;;;;0.70;0.70;;;23.30;46.70;;;;;;5040210;28;20255;-61
2023/07/28 08:58:18;;;;;;;0.90;0.80;;;23.20;46.70;;;;;;5037323;28;20443;-62
2023/07/28 09:00:46;;;;;;;0.70;0.60;;;23.20;46.60;;;;;;5038852;28;20565;-61
2023/07/28 09:03:12;;;;;;;0.60;0.50;;;23.20;46.70;;;;;;5040346;28;20443;-61
2023/07/28 09:05:40;;;;;;;0.70;0.70;;;23.20;46.70;;;;;;5040192;28;20458;-61
2023/07/28 09:08:07;;;;;;;0.60;0.60;;;23.30;46.70;;;;;;5038217;28;20253;-62
2023/07/28 09:10:41;;;;;;;1.20;0.60;;;23.20;46.70;;;;;;5023492;28;20834;-62
2023/07/28 09:13:09;;;;;;;0.60;0.60;;;23.20;46.70;;;;;;5023796;28;20860;-61
2023/07/28 09:15:35;;;;;;;0.70;0.67;;;23.20;46.70;;;;;;5031474;28;20530;-61
2023/07/28 09:18:01;;;;;;;0.80;0.73;;;23.20;47.50;;;;;;5038948;28;20538;-61
2023/07/28 09:20:35;;;;;;;0.60;0.60;;;23.20;46.70;;;;;;5038636;28;21100;-61
2023/07/28 09:23:01;;;;;;;0.70;0.60;;;23.20;47.50;;;;;;5036867;28;20735;-61
2023/07/28 09:25:29;;;;;;;0.70;0.70;;;23.20;46.70;;;;;;5038247;28;20454;-61
2023/07/28 09:27:54;;;;;;;0.70;0.60;;;23.20;46.70;;;;;;5037908;28;20525;-61
2023/07/28 09:30:21;;;;;;;0.70;0.70;;;23.20;46.70;;;;;;5036025;28;20474;-61
2023/07/28 09:32:54;;;;;;;0.67;0.67;;;23.20;46.70;;;;;;5037578;28;20242;-61
2023/07/28 09:35:21;;;;;;;0.60;0.60;;;23.20;47.50;;;;;;5037785;28;20459;-61
2023/07/28 09:37:49;;;;;;;0.90;0.60;;;23.20;47.50;;;;;;5038393;28;20448;-61
2023/07/28 09:40:17;;;;;;;1.03;0.77;;;23.30;46.90;;;;;;5036985;28;20461;-61
2023/07/28 09:42:49;;;;;;;0.70;0.70;;;23.20;46.80;;;;;;5034400;28;21073;-61
2023/07/28 09:45:16;;;;;;;0.60;0.60;;;23.20;46.80;;;;;;5034932;28;20557;-62
2023/07/28 09:47:45;;;;;;;0.80;0.80;;;23.20;47.00;;;;;;5039001;28;20529;-61
2023/07/28 09:50:13;;;;;;;0.60;0.60;;;23.20;46.70;;;;;;5034501;28;20467;-61
2023/07/28 09:52:46;;;;;;;0.70;0.63;;;23.20;46.70;;;;;;5022239;28;20452;-62
2023/07/28 09:55:13;;;;;;;0.70;0.70;;;23.20;46.80;;;;;;5023457;28;21498;-64
2023/07/28 09:57:51;;;;;;;0.70;0.70;;;23.20;46.70;;;;;;5040177;28;20451;-62
2023/07/28 10:00:18;;;;;;;0.70;0.70;;;23.20;46.80;;;;;;5036507;28;20906;-61
2023/07/28 10:02:44;;;;;;;0.70;0.70;;;23.20;46.80;;;;;;5038755;28;20951;-61
2023/07/28 10:05:11;;;;;;;0.63;0.63;;;23.20;46.70;;;;;;5031840;28;20439;-62
2023/07/28 10:07:39;;;;;;;0.70;0.60;;;23.20;46.80;;;;;;5030170;28;21361;-61
2023/07/28 10:10:07;;;;;;;0.60;0.53;;;23.20;46.80;;;;;;5036647;28;20970;-62
2023/07/28 10:12:48;;;;;;;0.70;0.70;;;23.20;46.80;;;;;;5028248;28;20459;-61
2023/07/28 10:15:16;;;;;;;0.60;0.60;;;23.20;46.80;;;;;;5013933;28;20482;-62
2023/07/28 10:17:54;;;;;;;0.60;0.60;;;23.20;46.80;;;;;;5026685;28;20498;-62
2023/07/28 10:20:32;;;;;;;0.63;0.63;;;23.20;46.80;;;;;;5034541;28;20506;-61
2023/07/28 10:23:11;;;;;;;0.70;0.70;;;23.20;46.80;;;;;;5023604;28;20456;-61
2023/07/28 10:25:38;;;;;;;0.80;0.70;;;23.20;46.80;;;;;;5032244;28;20807;-63
2023/07/28 10:28:05;;;;;;;0.70;0.70;;;23.20;46.90;;;;;;5038133;28;20444;-61
2023/07/28 10:30:52;;;;;;;0.70;0.67;;;23.20;46.90;;;;;;5040370;28;20479;-62
2023/07/28 10:33:40;;;;;;;0.70;0.70;;;23.20;46.80;;;;;;5017807;28;20468;-61
2023/07/28 10:36:12;;;;;;;0.70;0.60;;;23.20;46.80;;;;;;5037781;28;20463;-60
2023/07/28 10:38:38;;;;;;;0.70;0.67;;;23.20;46.80;;;;;;5035714;28;20454;-62
2023/07/28 10:41:15;;;;;;;0.70;0.70;;;23.20;46.90;;;;;;5036564;28;20454;-61
2023/07/28 10:43:41;;;;;;;0.70;0.60;;;23.20;46.80;;;;;;5034547;28;20244;-62
2023/07/28 10:46:08;;;;;;;0.60;0.60;;;23.20;46.80;;;;;;5032348;28;20451;-62
2023/07/28 10:48:36;;;;;;;0.80;0.80;;;23.20;46.80;;;;;;5038496;28;20459;-61
2023/07/28 10:51:01;;;;;;;0.70;0.70;;;23.20;46.80;;;;;;5038845;28;20471;-61
2023/07/28 10:53:27;;;;;;;0.70;0.70;;;23.20;47.60;;;;;;5027267;28;20456;-61
2023/07/28 10:55:53;;;;;;;0.80;0.70;;;23.20;46.90;;;;;;5034453;28;20226;-62
2023/07/28 10:58:20;;;;;;;0.70;0.70;;;23.20;46.80;;;;;;5036648;28;20725;-62
2023/07/28 11:00:45;;;;;;;0.80;0.80;;;23.20;46.80;;;;;;5038484;28;20309;-61
2023/07/28 11:03:12;;;;;;;0.70;0.67;;;23.20;46.80;;;;;;5033171;28;20856;-61
2023/07/28 11:05:38;;;;;;;0.70;0.70;;;23.20;46.80;;;;;;5029915;28;20236;-62
2023/07/28 11:08:07;;;;;;;0.77;0.77;;;23.20;46.80;;;;;;5035879;28;20447;-61
2023/07/28 11:10:33;;;;;;;0.70;0.60;;;23.20;46.80;;;;;;5034819;28;20235;-61
2023/07/28 11:13:01;;;;;;;0.70;0.70;;;23.20;47.60;;;;;;5034788;28;20814;-62
2023/07/28 11:15:27;;;;;;;0.70;0.70;;;23.20;46.80;;;;;;5036424;28;20272;-62
2023/07/28 11:17:53;;;;;;;0.60;0.60;;;23.20;46.70;;;;;;5035965;28;20966;-61
2023/07/28 11:20:20;;;;;;;0.70;0.70;;;23.30;46.80;;;;;;5033975;28;20218;-63
2023/07/28 11:22:51;;;;;;;0.70;0.70;;;23.30;46.90;;;;;;5034079;28;20227;-61
2023/07/28 11:25:17;;;;;;;0.67;0.60;;;23.20;46.80;;;;;;5035518;28;20464;-62
2023/07/28 11:27:46;;;;;;;0.70;0.70;;;23.30;46.80;;;;;;5034926;28;20444;-61
2023/07/28 11:30:13;;;;;;;0.70;0.60;;;23.20;46.80;;;;;;5037222;28;20516;-63
2023/07/28 11:32:38;;;;;;;0.70;0.60;;;23.30;46.80;;;;;;5036090;28;20463;-62
2023/07/28 11:35:06;;;;;;;0.60;0.50;;;23.30;46.90;;;;;;5033186;28;20813;-61
2023/07/28 11:37:33;;;;;;;0.80;0.80;;;23.30;47.00;;;;;;5036892;28;20580;-62
2023/07/28 11:40:01;;;;;;;0.60;0.60;;;23.30;46.90;;;;;;5036008;28;20463;-61
2023/07/28 11:42:28;;;;;;;0.70;0.70;;;23.30;47.00;;;;;;5034074;28;20468;-61
2023/07/28 11:44:54;;;;;;;0.70;0.70;;;23.30;47.00;;;;;;5026235;28;20452;-62
2023/07/28 11:47:20;;;;;;;0.70;0.70;;;23.30;47.00;;;;;;5038546;28;20976;-61
2023/07/28 11:49:47;;;;;;;0.80;0.63;;;23.30;47.00;;;;;;5031591;28;20214;-63
2023/07/28 11:52:13;;;;;;;0.63;0.60;;;23.30;46.80;;;;;;5034994;28;20517;-63
2023/07/28 11:54:38;;;;;;;0.90;0.80;;;23.30;46.90;;;;;;5038068;28;20840;-61
2023/07/28 11:57:06;;;;;;;0.70;0.70;;;23.30;47.00;;;;;;5036753;28;20245;-61
2023/07/28 11:59:32;;;;;;;0.70;0.60;;;23.30;46.90;;;;;;5033484;28;20681;-62
2023/07/28 12:02:04;;;;;;;0.70;0.70;;;23.30;46.90;;;;;;5031722;28;20499;-61
2023/07/28 12:04:32;;;;;;;1.10;0.70;;;23.30;46.90;;;;;;5019177;28;20215;-64
2023/07/28 12:07:12;;;;;;;0.70;0.70;;;23.30;46.90;;;;;;5036720;28;20963;-61
2023/07/28 12:09:48;;;;;;;0.70;0.70;;;23.30;46.80;;;;;;5015357;28;20525;-62
2023/07/28 12:12:15;;;;;;;0.70;0.70;;;23.30;46.90;;;;;;5034677;28;20531;-61
2023/07/28 12:14:40;;;;;;;0.60;0.60;;;23.30;46.80;;;;;;5035041;28;20509;-61
2023/07/28 12:17:17;;;;;;;0.73;0.73;;;23.30;46.90;;;;;;5037023;28;20452;-64
2023/07/28 12:19:57;;;;;;;0.70;0.60;;;23.30;46.80;;;;;;5033155;28;20217;-61
2023/07/28 12:22:22;;;;;;;0.80;0.80;;;23.30;46.80;;;;;;5032178;28;21257;-62
2023/07/28 12:24:48;;;;;;;0.70;0.60;;;23.30;47.60;;;;;;5024115;28;20459;-62
2023/07/28 12:27:13;;;;;;;0.80;0.80;;;23.30;46.80;;;;;;5024850;28;20226;-61
2023/07/28 12:29:39;;;;;;;0.70;0.70;;;23.30;46.90;;;;;;5021446;28;20230;-62
2023/07/28 12:32:05;;;;;;;0.60;0.60;;;23.30;47.60;;;;;;5018963;28;20237;-61
2023/07/28 12:34:30;;;;;;;0.67;0.67;;;23.30;46.90;;;;;;5036399;28;20371;-63
2023/07/28 12:36:56;;;;;;;0.70;0.70;;;23.30;46.90;;;;;;5037024;28;20272;-61
2023/07/28 12:39:23;;;;;;;0.70;0.70;;;23.30;46.90;;;;;;5025806;28;20991;-62
2023/07/28 12:41:48;;;;;;;0.60;0.60;;;23.30;46.90;;;;;;5035261;28;20275;-61
2023/07/28 12:44:14;;;;;;;0.70;0.70;;;23.30;46.90;;;;;;5035194;28;20495;-61
2023/07/28 12:46:39;;;;;;;0.70;0.70;;;23.30;46.80;;;;;;5026831;28;20232;-61